createdAt,value
2019-03-12T00:00:24.202Z,1001.36
2019-03-12T00:01:24.187Z,1001.32
2019-03-12T00:02:24.167Z,1001.34
2019-03-12T00:03:24.161Z,1001.38
2019-03-12T00:04:24.127Z,1001.33
2019-03-12T00:05:24.125Z,1001.35
2019-03-12T00:06:24.090Z,1001.36
2019-03-12T00:07:24.070Z,1001.33
2019-03-12T00:08:24.048Z,1001.34
2019-03-12T00:09:24.025Z,1001.34
2019-03-12T00:10:24.374Z,1001.33
2019-03-12T00:11:23.985Z,1001.32
2019-03-12T00:12:24.013Z,1001.33
2019-03-12T00:13:23.949Z,1001.34
2019-03-12T00:14:23.927Z,1001.39
2019-03-12T00:15:23.905Z,1001.40
2019-03-12T00:16:23.903Z,1001.48
2019-03-12T00:17:23.870Z,1001.49
2019-03-12T00:18:23.850Z,1001.51
2019-03-12T00:19:23.828Z,1001.54
2019-03-12T00:20:23.807Z,1001.56
2019-03-12T00:21:23.791Z,1001.59
2019-03-12T00:22:23.769Z,1001.59
2019-03-12T00:23:23.742Z,1001.57
2019-03-12T00:24:23.726Z,1001.59
2019-03-12T00:25:23.720Z,1001.65
2019-03-12T00:26:23.811Z,1001.68
2019-03-12T00:27:23.714Z,1001.71
2019-03-12T00:28:23.641Z,1001.75
2019-03-12T00:29:23.705Z,1001.75
2019-03-12T00:30:23.608Z,1001.76
2019-03-12T00:31:23.583Z,1001.75
2019-03-12T00:32:23.559Z,1001.77
2019-03-12T00:33:23.546Z,1001.80
2019-03-12T00:34:23.532Z,1001.79
2019-03-12T00:35:23.503Z,1001.77
2019-03-12T00:36:23.478Z,1001.77
2019-03-12T00:37:23.464Z,1001.77
2019-03-12T00:38:23.442Z,1001.77
2019-03-12T00:39:23.419Z,1001.75
2019-03-12T00:40:23.414Z,1001.74
2019-03-12T00:41:23.378Z,1001.75
2019-03-12T00:42:23.363Z,1001.72
2019-03-12T00:43:23.339Z,1001.71
2019-03-12T00:44:23.329Z,1001.68
2019-03-12T00:45:23.306Z,1001.66
2019-03-12T00:46:23.303Z,1001.68
2019-03-12T00:47:23.265Z,1001.67
2019-03-12T00:48:23.240Z,1001.63
2019-03-12T00:49:23.240Z,1001.67
2019-03-12T00:50:23.200Z,1001.61
2019-03-12T00:51:23.179Z,1001.62
2019-03-12T00:52:23.162Z,1001.59
2019-03-12T00:53:23.137Z,1001.57
2019-03-12T00:54:23.116Z,1001.55
2019-03-12T00:55:23.135Z,1001.53
2019-03-12T00:56:23.084Z,1001.50
2019-03-12T00:57:23.061Z,1001.53
2019-03-12T00:58:23.043Z,1001.50
2019-03-12T00:59:23.012Z,1001.53
2019-03-12T01:00:23.004Z,1001.52
2019-03-12T01:01:22.981Z,1001.51
2019-03-12T01:02:22.952Z,1001.54
2019-03-12T01:03:22.939Z,1001.53
2019-03-12T01:04:22.909Z,1001.53
2019-03-12T01:05:22.892Z,1001.56
2019-03-12T01:06:22.902Z,1001.61
2019-03-12T01:07:22.856Z,1001.59
2019-03-12T01:08:22.838Z,1001.60
2019-03-12T01:09:22.815Z,1001.61
2019-03-12T01:10:22.792Z,1001.63
2019-03-12T01:11:22.770Z,1001.62
2019-03-12T01:12:22.751Z,1001.66
2019-03-12T01:13:22.730Z,1001.61
2019-03-12T01:14:22.724Z,1001.61
2019-03-12T01:15:22.700Z,1001.67
2019-03-12T01:16:22.680Z,1001.72
2019-03-12T01:17:22.644Z,1001.68
2019-03-12T01:18:22.630Z,1001.69
2019-03-12T01:19:22.612Z,1001.70
2019-03-12T01:20:22.591Z,1001.70
2019-03-12T01:21:22.563Z,1001.70
2019-03-12T01:22:22.547Z,1001.74
2019-03-12T01:23:22.553Z,1001.76
2019-03-12T01:24:22.502Z,1001.78
2019-03-12T01:25:22.482Z,1001.79
2019-03-12T01:26:22.463Z,1001.81
2019-03-12T01:27:22.447Z,1001.89
2019-03-12T01:28:22.435Z,1001.90
2019-03-12T01:29:22.407Z,1001.89
2019-03-12T01:30:22.379Z,1001.97
2019-03-12T01:31:22.361Z,1001.95
2019-03-12T01:32:22.339Z,1001.96
2019-03-12T01:33:22.315Z,1001.99
2019-03-12T01:34:22.298Z,1001.94
2019-03-12T01:35:22.279Z,1001.95
2019-03-12T01:36:22.270Z,1001.96
2019-03-12T01:37:22.236Z,1002.00
2019-03-12T01:38:22.212Z,1001.98
2019-03-12T01:39:22.218Z,1001.99
2019-03-12T01:40:22.175Z,1001.93
2019-03-12T01:41:22.153Z,1001.95
2019-03-12T01:42:22.133Z,1001.96
2019-03-12T01:43:22.137Z,1001.97
2019-03-12T01:44:22.084Z,1001.96
2019-03-12T01:45:22.067Z,1002.01
2019-03-12T01:46:22.051Z,1002.04
2019-03-12T01:47:22.038Z,1002.06
2019-03-12T01:48:22.005Z,1002.12
2019-03-12T01:49:21.980Z,1002.08
2019-03-12T01:50:21.964Z,1002.10
2019-03-12T01:51:21.946Z,1002.07
2019-03-12T01:52:21.933Z,1002.11
2019-03-12T01:53:21.907Z,1002.14
2019-03-12T01:54:21.888Z,1002.18
2019-03-12T01:55:21.859Z,1002.21
2019-03-12T01:56:21.845Z,1002.22
2019-03-12T01:57:21.826Z,1002.24
2019-03-12T01:58:21.802Z,1002.28
2019-03-12T01:59:21.784Z,1002.26
2019-03-12T02:00:21.761Z,1002.26
2019-03-12T02:01:21.742Z,1002.33
2019-03-12T02:02:21.724Z,1002.26
2019-03-12T02:03:21.697Z,1002.28
2019-03-12T02:04:21.687Z,1002.31
2019-03-12T02:05:21.670Z,1002.31
2019-03-12T02:06:21.640Z,1002.31
2019-03-12T02:07:21.625Z,1002.32
2019-03-12T02:08:21.614Z,1002.30
2019-03-12T02:09:21.575Z,1002.28
2019-03-12T02:10:21.562Z,1002.26
2019-03-12T02:11:21.540Z,1002.32
2019-03-12T02:12:21.513Z,1002.27
2019-03-12T02:13:21.507Z,1002.31
2019-03-12T02:14:21.480Z,1002.29
2019-03-12T02:15:21.456Z,1002.27
2019-03-12T02:16:21.435Z,1002.27
2019-03-12T02:17:21.427Z,1002.26
2019-03-12T02:18:21.397Z,1002.22
2019-03-12T02:19:21.376Z,1002.23
2019-03-12T02:20:21.358Z,1002.21
2019-03-12T02:21:21.336Z,1002.25
2019-03-12T02:22:21.326Z,1002.22
2019-03-12T02:23:21.297Z,1002.20
2019-03-12T02:24:21.279Z,1002.13
2019-03-12T02:25:21.258Z,1002.11
2019-03-12T02:26:21.238Z,1002.12
2019-03-12T02:27:21.218Z,1002.06
2019-03-12T02:28:21.199Z,1002.08
2019-03-12T02:29:21.178Z,1002.04
2019-03-12T02:30:21.160Z,1002.02
2019-03-12T02:31:21.137Z,1002.04
2019-03-12T02:32:21.167Z,1002.04
2019-03-12T02:33:21.109Z,1002.07
2019-03-12T02:34:21.071Z,1002.02
2019-03-12T02:35:21.064Z,1002.08
2019-03-12T02:36:21.033Z,1002.07
2019-03-12T02:37:21.032Z,1002.10
2019-03-12T02:38:20.995Z,1002.09
2019-03-12T02:39:20.973Z,1002.06
2019-03-12T02:40:20.950Z,1002.11
2019-03-12T02:41:20.942Z,1002.07
2019-03-12T02:42:20.915Z,1002.08
2019-03-12T02:43:20.895Z,1002.07
2019-03-12T02:44:20.878Z,1002.11
2019-03-12T02:45:20.855Z,1002.10
2019-03-12T02:46:20.830Z,1002.11
2019-03-12T02:47:20.813Z,1002.09
2019-03-12T02:48:20.789Z,1002.08
2019-03-12T02:49:20.777Z,1002.09
2019-03-12T02:50:20.758Z,1002.09
2019-03-12T02:51:20.747Z,1002.09
2019-03-12T02:52:20.709Z,1002.09
2019-03-12T02:53:20.851Z,1002.10
2019-03-12T02:54:20.677Z,1002.08
2019-03-12T02:55:20.660Z,1002.06
2019-03-12T02:56:20.623Z,1002.07
2019-03-12T02:57:20.616Z,1002.10
2019-03-12T02:58:20.594Z,1002.07
2019-03-12T02:59:20.565Z,1002.09
2019-03-12T03:00:20.548Z,1002.13
2019-03-12T03:01:20.529Z,1002.12
2019-03-12T03:02:20.503Z,1002.13
2019-03-12T03:03:20.490Z,1002.09
2019-03-12T03:04:20.465Z,1002.10
2019-03-12T03:05:20.454Z,1002.08
2019-03-12T03:06:20.472Z,1002.04
2019-03-12T03:07:20.405Z,1002.04
2019-03-12T03:08:20.421Z,1002.03
2019-03-12T03:09:20.375Z,1002.06
2019-03-12T03:10:20.363Z,1002.09
2019-03-12T03:11:20.420Z,1002.02
2019-03-12T03:12:20.302Z,1002.00
2019-03-12T03:13:20.313Z,1001.98
2019-03-12T03:14:20.287Z,1001.98
2019-03-12T03:15:20.245Z,1002.00
2019-03-12T03:16:23.840Z,1002.02
2019-03-12T03:17:20.223Z,1002.01
2019-03-12T03:18:20.195Z,1002.02
2019-03-12T03:19:20.159Z,1001.99
2019-03-12T03:20:20.147Z,1001.99
2019-03-12T03:21:20.134Z,1001.97
2019-03-12T03:22:20.128Z,1002.01
2019-03-12T03:23:20.083Z,1002.07
2019-03-12T03:24:20.062Z,1002.04
2019-03-12T03:25:20.045Z,1002.06
2019-03-12T03:26:20.237Z,1002.07
2019-03-12T03:27:20.012Z,1002.08
2019-03-12T03:28:19.991Z,1002.10
2019-03-12T03:29:19.977Z,1002.12
2019-03-12T03:30:19.961Z,1002.09
2019-03-12T03:31:19.966Z,1002.11
2019-03-12T03:32:19.914Z,1002.08
2019-03-12T03:33:19.877Z,1002.12
2019-03-12T03:34:27.023Z,1002.12
2019-03-12T03:35:19.860Z,1002.08
2019-03-12T03:36:19.843Z,1002.09
2019-03-12T03:37:19.798Z,1002.08
2019-03-12T03:38:19.779Z,1002.09
2019-03-12T03:39:19.763Z,1002.07
2019-03-12T03:40:19.771Z,1002.08
2019-03-12T03:41:19.722Z,1002.10
2019-03-12T03:42:19.714Z,1002.05
2019-03-12T03:43:19.691Z,1002.03
2019-03-12T03:44:19.664Z,1002.03
2019-03-12T03:45:19.648Z,1002.06
2019-03-12T03:46:19.615Z,1002.10
2019-03-12T03:47:20.070Z,1002.04
2019-03-12T03:48:19.599Z,1002.04
2019-03-12T03:49:19.554Z,1002.03
2019-03-12T03:50:19.553Z,1002.03
2019-03-12T03:51:19.511Z,1001.98
2019-03-12T03:52:19.502Z,1001.96
2019-03-12T03:53:19.477Z,1001.98
2019-03-12T03:54:19.475Z,1001.97
2019-03-12T03:55:19.435Z,1002.01
2019-03-12T03:56:19.431Z,1001.94
2019-03-12T03:57:19.401Z,1001.94
2019-03-12T03:58:19.407Z,1001.93
2019-03-12T03:59:19.357Z,1001.88
2019-03-12T04:00:19.343Z,1001.88
2019-03-12T04:01:19.314Z,1001.85
2019-03-12T04:02:19.294Z,1001.86
2019-03-12T04:03:19.278Z,1001.91
2019-03-12T04:04:19.334Z,1001.96
2019-03-12T04:05:19.248Z,1001.94
2019-03-12T04:06:19.210Z,1001.95
2019-03-12T04:07:19.187Z,1001.95
2019-03-12T04:08:19.168Z,1001.93
2019-03-12T04:09:19.142Z,1001.87
2019-03-12T04:10:19.133Z,1001.92
2019-03-12T04:11:19.109Z,1001.88
2019-03-12T04:12:19.091Z,1001.84
2019-03-12T04:13:19.072Z,1001.85
2019-03-12T04:14:19.056Z,1001.82
2019-03-12T04:15:19.047Z,1001.79
2019-03-12T04:16:19.018Z,1001.81
2019-03-12T04:17:18.977Z,1001.79
2019-03-12T04:18:18.972Z,1001.79
2019-03-12T04:19:18.938Z,1001.77
2019-03-12T04:20:18.914Z,1001.80
2019-03-12T04:21:18.919Z,1001.78
2019-03-12T04:22:18.910Z,1001.76
2019-03-12T04:23:18.891Z,1001.74
2019-03-12T04:24:18.834Z,1001.73
2019-03-12T04:25:18.994Z,1001.73
2019-03-12T04:26:18.790Z,1001.71
2019-03-12T04:27:18.775Z,1001.70
2019-03-12T04:28:18.753Z,1001.68
2019-03-12T04:29:18.727Z,1001.68
2019-03-12T04:30:18.711Z,1001.71
2019-03-12T04:31:18.686Z,1001.68
2019-03-12T04:32:18.675Z,1001.71
2019-03-12T04:33:18.650Z,1001.69
2019-03-12T04:34:18.636Z,1001.70
2019-03-12T04:35:18.615Z,1001.73
2019-03-12T04:36:18.587Z,1001.68
2019-03-12T04:37:18.567Z,1001.70
2019-03-12T04:38:18.560Z,1001.71
2019-03-12T04:39:18.528Z,1001.64
2019-03-12T04:40:18.507Z,1001.65
2019-03-12T04:41:18.477Z,1001.70
2019-03-12T04:42:18.466Z,1001.67
2019-03-12T04:43:18.459Z,1001.63
2019-03-12T04:44:18.418Z,1001.62
2019-03-12T04:45:18.407Z,1001.57
2019-03-12T04:46:18.380Z,1001.57
2019-03-12T04:47:18.349Z,1001.58
2019-03-12T04:48:18.335Z,1001.54
2019-03-12T04:49:18.315Z,1001.55
2019-03-12T04:50:18.299Z,1001.51
2019-03-12T04:51:18.273Z,1001.49
2019-03-12T04:52:18.273Z,1001.45
2019-03-12T04:53:18.273Z,1001.44
2019-03-12T04:54:18.213Z,1001.47
2019-03-12T04:55:18.187Z,1001.47
2019-03-12T04:56:18.171Z,1001.44
2019-03-12T04:57:18.150Z,1001.45
2019-03-12T04:58:18.125Z,1001.45
2019-03-12T04:59:18.105Z,1001.48
2019-03-12T05:00:18.085Z,1001.43
2019-03-12T05:01:18.055Z,1001.41
2019-03-12T05:02:18.036Z,1001.40
2019-03-12T05:03:18.021Z,1001.36
2019-03-12T05:04:18.005Z,1001.38
2019-03-12T05:05:17.979Z,1001.33
2019-03-12T05:06:19.769Z,1001.31
2019-03-12T05:07:17.935Z,1001.28
2019-03-12T05:08:17.914Z,1001.32
2019-03-12T05:09:17.896Z,1001.28
2019-03-12T05:10:17.891Z,1001.24
2019-03-12T05:11:17.859Z,1001.22
2019-03-12T05:12:17.825Z,1001.20
2019-03-12T05:13:17.807Z,1001.16
2019-03-12T05:14:17.789Z,1001.17
2019-03-12T05:15:17.858Z,1001.19
2019-03-12T05:16:17.746Z,1001.20
2019-03-12T05:17:17.726Z,1001.22
2019-03-12T05:18:17.705Z,1001.18
2019-03-12T05:19:17.709Z,1001.20
2019-03-12T05:20:17.657Z,1001.17
2019-03-12T05:21:17.649Z,1001.15
2019-03-12T05:22:17.622Z,1001.17
2019-03-12T05:23:17.595Z,1001.14
2019-03-12T05:24:17.584Z,1001.17
2019-03-12T05:25:17.557Z,1001.16
2019-03-12T05:26:17.536Z,1001.14
2019-03-12T05:27:17.507Z,1001.16
2019-03-12T05:28:17.497Z,1001.14
2019-03-12T05:29:17.475Z,1001.07
2019-03-12T05:30:17.451Z,1001.07
2019-03-12T05:31:17.425Z,1001.11
2019-03-12T05:32:17.402Z,1001.08
2019-03-12T05:33:17.389Z,1001.04
2019-03-12T05:34:17.366Z,1001.08
2019-03-12T05:35:17.350Z,1001.04
2019-03-12T05:36:17.324Z,1001.05
2019-03-12T05:37:17.303Z,1001.08
2019-03-12T05:38:17.281Z,1001.09
2019-03-12T05:39:17.538Z,1001.09
2019-03-12T05:40:17.237Z,1001.07
2019-03-12T05:41:17.220Z,1001.07
2019-03-12T05:42:17.205Z,1001.03
2019-03-12T05:43:17.174Z,1001.06
2019-03-12T05:44:17.157Z,1001.03
2019-03-12T05:45:17.129Z,1001.01
2019-03-12T05:46:17.115Z,1001.00
2019-03-12T05:47:17.091Z,1001.01
2019-03-12T05:48:17.072Z,1001.00
2019-03-12T05:49:17.071Z,1001.02
2019-03-12T05:50:17.027Z,1001.01
2019-03-12T05:51:17.004Z,1000.99
2019-03-12T05:52:17.000Z,1001.02
2019-03-12T05:53:16.964Z,1001.03
2019-03-12T05:54:16.959Z,1001.07
2019-03-12T05:55:16.929Z,1001.07
2019-03-12T05:56:16.901Z,1001.07
2019-03-12T05:57:16.882Z,1001.12
2019-03-12T05:58:16.860Z,1001.05
2019-03-12T05:59:16.838Z,1001.08
2019-03-12T06:00:16.827Z,1001.07
2019-03-12T06:01:16.799Z,1001.09
2019-03-12T06:02:16.778Z,1001.08
2019-03-12T06:03:16.752Z,1001.02
2019-03-12T06:04:16.785Z,1001.00
2019-03-12T06:05:16.711Z,1001.01
2019-03-12T06:06:16.692Z,1001.03
2019-03-12T06:07:16.676Z,1001.00
2019-03-12T06:08:16.660Z,1001.01
2019-03-12T06:09:29.409Z,1001.02
2019-03-12T06:10:16.608Z,1000.99
2019-03-12T06:11:16.585Z,1000.99
2019-03-12T06:12:16.579Z,1000.99
2019-03-12T06:13:16.546Z,1000.99
2019-03-12T06:14:16.529Z,1000.98
2019-03-12T06:15:16.503Z,1001.06
2019-03-12T06:16:16.487Z,1001.05
2019-03-12T06:17:16.457Z,1001.04
2019-03-12T06:18:16.436Z,1001.09
2019-03-12T06:19:16.419Z,1001.10
2019-03-12T06:20:16.402Z,1001.04
2019-03-12T06:21:16.374Z,1001.05
2019-03-12T06:22:16.378Z,1001.04
2019-03-12T06:23:16.332Z,1001.09
2019-03-12T06:24:16.312Z,1000.99
2019-03-12T06:25:16.293Z,1001.04
2019-03-12T06:26:16.281Z,1000.97
2019-03-12T06:27:18.225Z,1000.99
2019-03-12T06:28:16.229Z,1000.96
2019-03-12T06:29:16.213Z,1000.94
2019-03-12T06:30:16.191Z,1000.97
2019-03-12T06:31:16.166Z,1000.92
2019-03-12T06:32:16.144Z,1000.93
2019-03-12T06:33:16.125Z,1000.94
2019-03-12T06:34:16.129Z,1000.95
2019-03-12T06:35:16.099Z,1000.97
2019-03-12T06:36:16.066Z,1000.98
2019-03-12T06:37:16.041Z,1001.02
2019-03-12T06:38:16.021Z,1000.98
2019-03-12T06:39:16.013Z,1001.02
2019-03-12T06:40:15.986Z,1001.02
2019-03-12T06:41:15.972Z,1001.00
2019-03-12T06:42:15.941Z,1000.99
2019-03-12T06:43:16.009Z,1000.98
2019-03-12T06:44:15.896Z,1000.95
2019-03-12T06:45:15.878Z,1001.05
2019-03-12T06:46:15.857Z,1000.97
2019-03-12T06:47:15.835Z,1000.95
2019-03-12T06:48:15.811Z,1000.96
2019-03-12T06:49:15.790Z,1000.95
2019-03-12T06:50:15.793Z,1000.92
2019-03-12T06:51:15.755Z,1000.87
2019-03-12T06:52:15.733Z,1000.90
2019-03-12T06:53:15.715Z,1000.87
2019-03-12T06:54:15.696Z,1000.86
2019-03-12T06:55:15.668Z,1000.82
2019-03-12T06:56:15.651Z,1000.83
2019-03-12T06:57:15.626Z,1000.84
2019-03-12T06:58:15.621Z,1000.84
2019-03-12T06:59:15.591Z,1000.78
2019-03-12T07:00:15.573Z,1000.82
2019-03-12T07:01:15.548Z,1000.81
2019-03-12T07:02:15.533Z,1000.77
2019-03-12T07:03:15.501Z,1000.72
2019-03-12T07:04:15.482Z,1000.71
2019-03-12T07:05:15.471Z,1000.72
2019-03-12T07:06:15.449Z,1000.76
2019-03-12T07:07:17.157Z,1000.72
2019-03-12T07:08:15.405Z,1000.69
2019-03-12T07:09:15.387Z,1000.70
2019-03-12T07:10:15.363Z,1000.72
2019-03-12T07:11:15.345Z,1000.72
2019-03-12T07:12:15.325Z,1000.71
2019-03-12T07:13:15.307Z,1000.68
2019-03-12T07:14:15.286Z,1000.65
2019-03-12T07:15:15.262Z,1000.54
2019-03-12T07:16:15.246Z,1000.53
2019-03-12T07:17:15.225Z,1000.47
2019-03-12T07:18:15.207Z,1000.55
2019-03-12T07:19:15.183Z,1000.48
2019-03-12T07:20:15.162Z,1000.52
2019-03-12T07:21:15.145Z,1000.49
2019-03-12T07:22:15.122Z,1000.47
2019-03-12T07:23:15.098Z,1000.45
2019-03-12T07:24:15.086Z,1000.42
2019-03-12T07:25:15.071Z,1000.42
2019-03-12T07:26:15.042Z,1000.46
2019-03-12T07:27:15.022Z,1000.43
2019-03-12T07:28:15.017Z,1000.39
2019-03-12T07:29:14.986Z,1000.38
2019-03-12T07:30:14.960Z,1000.38
2019-03-12T07:31:14.974Z,1000.32
2019-03-12T07:32:14.922Z,1000.34
2019-03-12T07:33:14.904Z,1000.35
2019-03-12T07:34:18.087Z,1000.35
2019-03-12T07:35:14.863Z,1000.31
2019-03-12T07:36:14.856Z,1000.34
2019-03-12T07:37:14.826Z,1000.38
2019-03-12T07:38:14.803Z,1000.33
2019-03-12T07:39:14.795Z,1000.35
2019-03-12T07:40:14.771Z,1000.33
2019-03-12T07:41:25.094Z,1000.33
2019-03-12T07:42:14.751Z,1000.31
2019-03-12T07:43:14.714Z,1000.31
2019-03-12T07:44:14.689Z,1000.31
2019-03-12T07:45:14.669Z,1000.24
2019-03-12T07:46:14.650Z,1000.26
2019-03-12T07:47:14.627Z,1000.22
2019-03-12T07:48:14.612Z,1000.22
2019-03-12T07:49:14.588Z,1000.21
2019-03-12T07:50:14.574Z,1000.12
2019-03-12T07:51:14.551Z,1000.15
2019-03-12T07:52:14.534Z,1000.12
2019-03-12T07:53:14.513Z,1000.15
2019-03-12T07:54:14.493Z,1000.11
2019-03-12T07:55:14.475Z,1000.11
2019-03-12T07:56:14.479Z,1000.14
2019-03-12T07:57:14.436Z,1000.10
2019-03-12T07:58:14.419Z,1000.12
2019-03-12T07:59:14.401Z,1000.09
2019-03-12T08:00:14.380Z,1000.08
2019-03-12T08:01:14.359Z,1000.06
2019-03-12T08:02:14.349Z,1000.03
2019-03-12T08:03:14.323Z,1000.01
2019-03-12T08:04:14.306Z,999.98
2019-03-12T08:05:14.286Z,999.98
2019-03-12T08:06:14.268Z,999.99
2019-03-12T08:07:14.246Z,999.92
2019-03-12T08:08:14.225Z,999.93
2019-03-12T08:09:14.239Z,999.89
2019-03-12T08:10:14.196Z,999.89
2019-03-12T08:11:14.174Z,999.92
2019-03-12T08:12:14.153Z,999.93
2019-03-12T08:13:14.133Z,999.98
2019-03-12T08:14:14.227Z,999.90
2019-03-12T08:15:22.918Z,999.87
2019-03-12T08:16:14.082Z,999.86
2019-03-12T08:17:14.066Z,999.89
2019-03-12T08:18:14.048Z,999.84
2019-03-12T08:19:14.035Z,999.79
2019-03-12T08:20:14.033Z,999.77
2019-03-12T08:21:22.293Z,999.71
2019-03-12T08:22:14.047Z,999.76
2019-03-12T08:23:13.958Z,999.73
2019-03-12T08:24:14.016Z,999.67
2019-03-12T08:25:13.923Z,999.66
2019-03-12T08:26:13.904Z,999.62
2019-03-12T08:27:13.880Z,999.64
2019-03-12T08:28:13.865Z,999.58
2019-03-12T08:29:13.850Z,999.51
2019-03-12T08:30:13.834Z,999.51
2019-03-12T08:31:13.817Z,999.59
2019-03-12T08:32:13.800Z,999.58
2019-03-12T08:33:13.780Z,999.57
2019-03-12T08:34:13.761Z,999.50
2019-03-12T08:35:13.743Z,999.52
2019-03-12T08:36:13.727Z,999.55
2019-03-12T08:37:13.709Z,999.52
2019-03-12T08:38:13.692Z,999.51
2019-03-12T08:39:13.672Z,999.46
2019-03-12T08:40:13.673Z,999.44
2019-03-12T08:41:13.659Z,999.49
2019-03-12T08:42:13.627Z,999.44
2019-03-12T08:43:13.610Z,999.39
2019-03-12T08:44:13.586Z,999.41
2019-03-12T08:45:15.381Z,999.39
2019-03-12T08:46:13.556Z,999.42
2019-03-12T08:47:13.534Z,999.36
2019-03-12T08:48:13.520Z,999.36
2019-03-12T08:49:13.507Z,999.30
2019-03-12T08:50:13.486Z,999.33
2019-03-12T08:51:13.470Z,999.25
2019-03-12T08:52:13.454Z,999.23
2019-03-12T08:53:13.436Z,999.27
2019-03-12T08:54:13.421Z,999.18
2019-03-12T08:55:13.403Z,999.14
2019-03-12T08:56:13.388Z,999.17
2019-03-12T08:57:13.373Z,999.12
2019-03-12T08:58:13.353Z,999.19
2019-03-12T08:59:13.343Z,999.09
2019-03-12T09:00:13.321Z,999.08
2019-03-12T09:01:13.302Z,999.01
2019-03-12T09:02:13.288Z,998.95
2019-03-12T09:03:13.268Z,998.96
2019-03-12T09:04:13.252Z,998.90
2019-03-12T09:05:13.253Z,998.91
2019-03-12T09:06:13.218Z,998.93
2019-03-12T09:07:13.203Z,998.86
2019-03-12T09:08:13.187Z,998.89
2019-03-12T09:09:13.173Z,998.89
2019-03-12T09:10:13.156Z,998.87
2019-03-12T09:11:13.139Z,998.91
2019-03-12T09:12:13.122Z,998.85
2019-03-12T09:13:13.122Z,998.84
2019-03-12T09:14:13.098Z,998.80
2019-03-12T09:15:13.074Z,998.78
2019-03-12T09:16:13.059Z,998.71
2019-03-12T09:17:13.044Z,998.82
2019-03-12T09:18:13.028Z,998.75
2019-03-12T09:19:13.060Z,998.73
2019-03-12T09:20:12.993Z,998.70
2019-03-12T09:21:12.980Z,998.65
2019-03-12T09:22:12.971Z,998.62
2019-03-12T09:23:12.949Z,998.61
2019-03-12T09:24:12.928Z,998.59
2019-03-12T09:25:12.917Z,998.53
2019-03-12T09:26:12.912Z,998.44
2019-03-12T09:27:12.884Z,998.46
2019-03-12T09:28:12.871Z,998.42
2019-03-12T09:29:12.856Z,998.38
2019-03-12T09:30:12.837Z,998.38
2019-03-12T09:31:12.824Z,998.34
2019-03-12T09:32:12.817Z,998.37
2019-03-12T09:33:12.791Z,998.32
2019-03-12T09:34:12.777Z,998.32
2019-03-12T09:35:12.759Z,998.31
2019-03-12T09:36:12.750Z,998.36
2019-03-12T09:37:12.738Z,998.25
2019-03-12T09:38:12.717Z,998.29
2019-03-12T09:39:12.701Z,998.25
2019-03-12T09:40:12.682Z,998.23
2019-03-12T09:41:12.678Z,998.27
2019-03-12T09:42:12.653Z,998.27
2019-03-12T09:43:12.637Z,998.21
2019-03-12T09:44:12.622Z,998.17
2019-03-12T09:45:12.605Z,998.19
2019-03-12T09:46:12.591Z,998.17
2019-03-12T09:47:12.578Z,998.22
2019-03-12T09:48:12.560Z,998.21
2019-03-12T09:49:12.543Z,998.16
2019-03-12T09:50:12.532Z,998.21
2019-03-12T09:51:12.519Z,998.19
2019-03-12T09:52:12.509Z,998.18
2019-03-12T09:53:12.481Z,998.09
2019-03-12T09:54:12.466Z,998.14
2019-03-12T09:55:12.452Z,998.15
2019-03-12T09:56:12.437Z,998.10
2019-03-12T09:58:51.853Z,998.01
2019-03-12T09:59:51.826Z,998.00
2019-03-12T10:01:59.264Z,997.99
2019-03-12T10:02:56.256Z,997.90
2019-03-12T10:05:01.674Z,997.86
2019-03-12T10:06:01.641Z,997.83
2019-03-12T10:08:07.072Z,997.83
2019-03-12T10:09:07.044Z,997.87
2019-03-12T10:11:11.481Z,997.85
2019-03-12T10:12:11.459Z,997.81
2019-03-12T10:14:15.868Z,997.76
2019-03-12T10:15:15.872Z,997.75
2019-03-12T10:17:20.282Z,997.66
2019-03-12T10:18:20.268Z,997.62
2019-03-12T10:20:24.695Z,997.67
2019-03-12T10:21:24.687Z,997.65
2019-03-12T10:23:29.086Z,997.58
2019-03-12T10:24:29.106Z,997.56
2019-03-12T10:26:33.555Z,997.46
2019-03-12T10:27:33.486Z,997.48
2019-03-12T10:29:37.941Z,997.47
2019-03-12T10:30:37.912Z,997.48
2019-03-12T10:31:37.903Z,997.51
2019-03-12T10:32:37.885Z,997.41
2019-03-12T10:33:37.865Z,997.43
2019-03-12T10:34:37.848Z,997.48
2019-03-12T10:35:37.838Z,997.50
2019-03-12T10:36:37.818Z,997.44
2019-03-12T10:37:37.800Z,997.46
2019-03-12T10:38:37.787Z,997.51
2019-03-12T10:39:37.786Z,997.47
2019-03-12T10:40:37.752Z,997.39
2019-03-12T10:41:37.743Z,997.41
2019-03-12T10:42:37.802Z,997.43
2019-03-12T10:43:37.750Z,997.43
2019-03-12T10:44:37.684Z,997.44
2019-03-12T10:45:37.674Z,997.36
2019-03-12T10:46:37.661Z,997.32
2019-03-12T10:47:37.640Z,997.32
2019-03-12T10:48:37.622Z,997.29
2019-03-12T10:49:37.944Z,997.22
2019-03-12T10:50:37.590Z,997.24
2019-03-12T10:51:37.576Z,997.18
2019-03-12T10:52:37.555Z,997.20
2019-03-12T10:53:37.540Z,997.13
2019-03-12T10:54:37.527Z,997.13
2019-03-12T10:55:37.521Z,997.01
2019-03-12T10:56:37.492Z,997.06
2019-03-12T10:57:37.486Z,997.05
2019-03-12T10:58:37.460Z,996.94
2019-03-12T10:59:37.460Z,996.95
2019-03-12T11:00:37.444Z,996.86
2019-03-12T11:01:37.408Z,996.78
2019-03-12T11:02:40.467Z,996.81
2019-03-12T11:03:37.381Z,996.82
2019-03-12T11:04:37.362Z,996.75
2019-03-12T11:05:45.867Z,996.76
2019-03-12T11:06:37.326Z,996.76
2019-03-12T11:07:37.313Z,996.63
2019-03-12T11:08:37.295Z,996.63
2019-03-12T11:09:37.281Z,996.61
2019-03-12T11:10:37.264Z,996.58
2019-03-12T11:11:37.247Z,996.51
2019-03-12T11:12:37.240Z,996.53
2019-03-12T11:13:37.212Z,996.48
2019-03-12T11:14:37.203Z,996.41
2019-03-12T11:15:37.183Z,996.49
2019-03-12T11:16:37.164Z,996.47
2019-03-12T11:17:48.700Z,996.49
2019-03-12T11:18:37.131Z,996.46
2019-03-12T11:19:37.120Z,996.45
2019-03-12T11:20:37.098Z,996.48
2019-03-12T11:21:37.084Z,996.44
2019-03-12T11:22:37.062Z,996.45
2019-03-12T11:23:37.055Z,996.42
2019-03-12T11:24:37.033Z,996.47
2019-03-12T11:25:37.013Z,996.47
2019-03-12T11:26:37.019Z,996.44
2019-03-12T11:27:36.981Z,996.41
2019-03-12T11:28:36.966Z,996.47
2019-03-12T11:29:36.959Z,996.41
2019-03-12T11:30:36.935Z,996.31
2019-03-12T11:31:36.920Z,996.34
2019-03-12T11:32:36.904Z,996.19
2019-03-12T11:33:36.887Z,996.22
2019-03-12T11:34:38.574Z,996.24
2019-03-12T11:35:39.533Z,996.14
2019-03-12T11:36:36.860Z,996.22
2019-03-12T11:37:36.826Z,996.15
2019-03-12T11:38:36.810Z,996.14
2019-03-12T11:39:36.817Z,996.09
2019-03-12T11:40:36.800Z,996.05
2019-03-12T11:41:36.761Z,996.04
2019-03-12T11:42:36.745Z,996.03
2019-03-12T11:43:36.743Z,995.96
2019-03-12T11:44:36.718Z,996.00
2019-03-12T11:45:38.031Z,995.89
2019-03-12T11:46:43.061Z,995.95
2019-03-12T11:47:36.702Z,995.85
2019-03-12T11:48:36.654Z,995.87
2019-03-12T11:49:36.645Z,995.83
2019-03-12T11:50:36.642Z,995.79
2019-03-12T11:51:36.608Z,995.79
2019-03-12T11:52:36.591Z,995.77
2019-03-12T11:53:36.571Z,995.78
2019-03-12T11:54:36.558Z,995.69
2019-03-12T11:55:36.540Z,995.70
2019-03-12T11:56:36.526Z,995.70
2019-03-12T11:57:36.505Z,995.65
2019-03-12T11:58:36.520Z,995.56
2019-03-12T11:59:36.479Z,995.54
2019-03-12T12:00:36.463Z,995.49
2019-03-12T12:01:36.443Z,995.48
2019-03-12T12:02:36.428Z,995.29
2019-03-12T12:03:36.408Z,995.35
2019-03-12T12:04:36.391Z,995.38
2019-03-12T12:05:36.389Z,995.25
2019-03-12T12:06:36.385Z,995.32
2019-03-12T12:07:36.365Z,995.27
2019-03-12T12:08:36.327Z,995.24
2019-03-12T12:09:36.334Z,995.18
2019-03-12T12:10:36.293Z,995.22
2019-03-12T12:11:36.279Z,995.19
2019-03-12T12:12:36.261Z,995.20
2019-03-12T12:13:36.245Z,995.19
2019-03-12T12:14:36.231Z,995.15
2019-03-12T12:15:36.213Z,995.24
2019-03-12T12:16:36.192Z,995.11
2019-03-12T12:17:36.179Z,995.07
2019-03-12T12:18:36.176Z,995.01
2019-03-12T12:19:36.148Z,994.97
2019-03-12T12:20:36.130Z,994.99
2019-03-12T12:21:36.116Z,994.86
2019-03-12T12:22:36.100Z,994.87
2019-03-12T12:23:36.086Z,994.85
2019-03-12T12:24:36.066Z,994.75
2019-03-12T12:25:36.054Z,994.74